»·PEaware :: SWA187 KLAX-KPHX

SWA187 :: KLAX-KPHX

FLIGHT INFORMATION

Flight Status: Arrived
Operator:
Southwest Airlines
More flights by this operator :: More flights under this callsign
Pilot: Nehseem A. (13724)
Aircraft: BOEING 737-800
(B738)
More flights by this aircraft type
Origin: KLAX Los Angeles Intl
United States
Destination: KPHX Phoenix Sky Harbor Intl
United States
More flights between these airports :: More routes between these airports
Route: DOTSS2 CNERY BLH HYDRR1
File this flight plan on PilotEdge
Remarks:
Altitude:
(Current/Filed)
33,000ft
Speed:
(Current/Filed)
448kts
Departed: 04-Oct-17 07:37 PM
Arrived: 04-Oct-17 08:36 PM
Distance/Time
Traveled:
321nm/0:59
Distance/Time
To Go:
Arrived

Flight Plot

Page will automatically refresh every two minutes.

Flight plan parsing failed; only flown route is shown


Map Options




Map Legend


Flown Route
Filed Route
Departure Airport
Arrival Airport
Navaid (VOR, NDB)
Fix

Horizontal Profiles

Position Reports

Time Latitude Longitude Heading Altitude Ground
Speed
04-Oct-17 19:02 33.946086 -118.407979 75 133ft 0kts
04-Oct-17 19:03 33.946086 -118.407979 75 133ft 0kts
04-Oct-17 19:04 33.946086 -118.407979 75 133ft 0kts
04-Oct-17 19:05 33.946086 -118.407979 75 134ft 0kts
04-Oct-17 19:06 33.946086 -118.407979 75 134ft 0kts
04-Oct-17 19:07 33.946086 -118.407979 75 134ft 0kts
04-Oct-17 19:08 33.946086 -118.407979 75 134ft 0kts
04-Oct-17 19:09 33.946086 -118.407979 75 134ft 0kts
04-Oct-17 19:10 33.946086 -118.407979 75 134ft 0kts
04-Oct-17 19:11 33.946086 -118.407979 75 134ft 0kts
04-Oct-17 19:12 33.946086 -118.407979 75 134ft 0kts
04-Oct-17 19:13 33.946086 -118.407979 75 134ft 0kts
04-Oct-17 19:14 33.946086 -118.407979 75 134ft 0kts
04-Oct-17 19:15 33.946086 -118.407979 75 134ft 0kts
04-Oct-17 19:16 33.946086 -118.407979 75 134ft 0kts
04-Oct-17 19:17 33.946086 -118.407979 75 134ft 0kts
04-Oct-17 19:18 33.946086 -118.407979 75 134ft 0kts
04-Oct-17 19:19 33.946086 -118.407979 75 134ft 0kts
04-Oct-17 19:20 33.946086 -118.407979 75 134ft 0kts
04-Oct-17 19:21 33.946086 -118.407979 75 134ft 0kts
04-Oct-17 19:22 33.946086 -118.407979 75 134ft 0kts
04-Oct-17 19:23 33.946086 -118.407979 75 134ft 0kts
04-Oct-17 19:24 33.946086 -118.407979 75 134ft 0kts
04-Oct-17 19:25 33.946086 -118.407979 75 134ft 0kts
04-Oct-17 19:26 33.946086 -118.407979 75 134ft 0kts
04-Oct-17 19:27 33.946086 -118.407979 75 134ft 0kts
04-Oct-17 19:28 33.946086 -118.407979 75 134ft 0kts
04-Oct-17 19:29 33.946065 -118.408080 75 134ft 2kts
04-Oct-17 19:30 33.945945 -118.408632 75 134ft 0kts
04-Oct-17 19:31 33.945945 -118.408632 75 134ft 0kts
04-Oct-17 19:32 33.945945 -118.408629 75 133ft 0kts
04-Oct-17 19:33 33.945946 -118.408625 75 133ft 0kts
04-Oct-17 19:34 33.945947 -118.408620 75 133ft 0kts
04-Oct-17 19:35 33.946546 -118.408776 334 133ft 0kts
04-Oct-17 19:36 33.947337 -118.409014 20 133ft 6kts
04-Oct-17 19:37 33.947858 -118.405860 81 133ft 12kts
04-Oct-17 19:38 33.948328 -118.401289 82 133ft 13kts
04-Oct-17 19:39 33.949323 -118.401697 337 133ft 0kts
04-Oct-17 19:40 33.950158 -118.401966 313 133ft 10kts
04-Oct-17 19:41 33.948461 -118.419255 261 137ft 143kts
04-Oct-17 19:42 33.941308 -118.475128 264 2734ft 194kts
04-Oct-17 19:43 33.939439 -118.546831 264 5010ft 249kts
04-Oct-17 19:44 33.919872 -118.631402 218 5032ft 275kts
04-Oct-17 19:45 33.846279 -118.636948 159 8524ft 280kts
04-Oct-17 19:46 33.775494 -118.584214 148 11306ft 316kts
04-Oct-17 19:47 33.699428 -118.514110 127 13337ft 367kts
04-Oct-17 19:48 33.660507 -118.397042 108 15898ft 388kts
04-Oct-17 19:49 33.643959 -118.267067 92 18368ft 403kts
04-Oct-17 19:50 33.640269 -118.135228 94 20286ft 424kts
04-Oct-17 19:51 33.636407 -117.991008 94 22282ft 438kts
04-Oct-17 19:52 33.632689 -117.842651 94 24078ft 451kts
04-Oct-17 19:53 33.629073 -117.689726 95 25699ft 465kts
04-Oct-17 19:54 33.625564 -117.533244 95 27408ft 471kts
04-Oct-17 19:55 33.622266 -117.376017 95 29161ft 473kts
04-Oct-17 19:56 33.619151 -117.216777 95 30533ft 478kts
04-Oct-17 19:57 33.616243 -117.057508 95 31859ft 478kts
04-Oct-17 19:58 33.613512 -116.897155 95 32980ft 488kts
04-Oct-17 19:59 33.610858 -116.729462 94 32986ft 513kts
04-Oct-17 20:00 33.608361 -116.558481 94 32963ft 513kts
04-Oct-17 20:01 33.606161 -116.392830 95 32950ft 512kts
04-Oct-17 20:02 33.604114 -116.222252 94 32945ft 512kts
04-Oct-17 20:03 33.602286 -116.052114 95 32931ft 511kts
04-Oct-17 20:04 33.600686 -115.881221 94 32931ft 511kts
04-Oct-17 20:05 33.599302 -115.710810 94 32942ft 511kts
04-Oct-17 20:06 33.598167 -115.540402 94 32967ft 512kts
04-Oct-17 20:07 33.597258 -115.370425 95 32942ft 509kts
04-Oct-17 20:08 33.596599 -115.201412 95 32931ft 505kts
04-Oct-17 20:09 33.596196 -115.032649 95 32938ft 504kts
04-Oct-17 20:10 33.596029 -114.864104 95 32945ft 506kts
04-Oct-17 20:11 33.591272 -114.697250 110 32939ft 490kts
04-Oct-17 20:12 33.554257 -114.540824 112 32937ft 483kts
04-Oct-17 20:13 33.523110 -114.386346 110 30883ft 476kts
04-Oct-17 20:14 33.492663 -114.232050 109 27913ft 476kts
04-Oct-17 20:15 33.462136 -114.078858 108 25405ft 454kts
04-Oct-17 20:16 33.434047 -113.938909 109 24984ft 425kts
04-Oct-17 20:17 33.406225 -113.796998 103 24917ft 445kts
04-Oct-17 20:18 33.389391 -113.647651 102 22613ft 458kts
04-Oct-17 20:19 33.346427 -113.520252 124 21898ft 394kts
04-Oct-17 20:20 33.324805 -113.393261 101 21189ft 398kts
04-Oct-17 20:21 33.303335 -113.264306 106 19193ft 392kts
04-Oct-17 20:22 33.284115 -113.138203 103 17210ft 379kts
04-Oct-17 20:23 33.274908 -113.017817 91 16288ft 356kts
04-Oct-17 20:24 33.278599 -112.899367 91 15926ft 358kts
04-Oct-17 20:25 33.283227 -112.781024 87 14794ft 354kts
04-Oct-17 20:26 33.294742 -112.669415 86 13668ft 326kts
04-Oct-17 20:27 33.304987 -112.561944 86 12559ft 318kts
04-Oct-17 20:28 33.314539 -112.457720 87 11456ft 311kts
04-Oct-17 20:29 33.323796 -112.356622 86 10997ft 307kts
04-Oct-17 20:30 33.333131 -112.255024 86 10398ft 309kts
04-Oct-17 20:31 33.341934 -112.156538 86 9089ft 282kts
04-Oct-17 20:32 33.347977 -112.070698 92 8673ft 250kts
04-Oct-17 20:33 33.346381 -111.985984 92 7325ft 256kts
04-Oct-17 20:34 33.345573 -111.902648 90 6173ft 242kts
04-Oct-17 20:35 33.347534 -111.825561 61 4956ft 227kts
04-Oct-17 20:36 33.403978 -111.815426 322 3724ft 223kts
04-Oct-17 20:37 33.429577 -111.874323 271 3133ft 193kts
04-Oct-17 20:38 33.428149 -111.930183 271 2304ft 152kts
04-Oct-17 20:39 33.428752 -111.982200 269 1498ft 152kts
04-Oct-17 20:40 33.428873 -112.023856 272 1143ft 32kts
04-Oct-17 20:41 33.430907 -112.023789 52 1143ft 18kts
04-Oct-17 20:42 33.431930 -112.023471 4 1143ft 2kts
04-Oct-17 20:43 33.432182 -112.020144 90 1143ft 15kts
04-Oct-17 20:44 33.432186 -112.012973 87 1143ft 13kts
04-Oct-17 20:45 33.433428 -112.010762 352 1143ft 11kts
04-Oct-17 20:46 33.433895 -112.011202 261 1143ft 0kts

Navigation Log

Ident Type
Flight plan parsing failed, navigation log unavailable